createdAt,value
2018-08-27T00:01:45.317Z,84.16
2018-08-27T00:02:45.081Z,84.78
2018-08-27T00:03:45.358Z,84.4
2018-08-27T00:04:45.381Z,84.01
2018-08-27T00:06:00.064Z,84.11
2018-08-27T00:06:45.423Z,83.73
2018-08-27T00:07:45.443Z,83.96
2018-08-27T00:08:45.466Z,83.39
2018-08-27T00:09:45.486Z,83.39
2018-08-27T00:10:45.508Z,83.48
2018-08-27T00:11:45.527Z,83.58
2018-08-27T00:12:45.554Z,83.58
2018-08-27T00:13:45.570Z,83.48
2018-08-27T00:14:45.591Z,83.67
2018-08-27T00:15:45.612Z,83.67
2018-08-27T00:16:45.633Z,83.96
2018-08-27T00:17:45.655Z,83.96
2018-08-27T00:18:45.676Z,84.06
2018-08-27T00:19:45.697Z,84.44
2018-08-27T00:20:45.718Z,83.58
2018-08-27T00:21:45.740Z,83.87
2018-08-27T00:22:45.760Z,83.29
2018-08-27T00:23:45.786Z,83.11
2018-08-27T00:24:45.803Z,83.01
2018-08-27T00:25:45.835Z,83.01
2018-08-27T00:26:45.585Z,82.43
2018-08-27T00:27:45.872Z,82.82
2018-08-27T00:28:45.888Z,82.24
2018-08-27T00:29:45.925Z,83.11
2018-08-27T00:30:45.932Z,83.01
2018-08-27T00:32:45.971Z,82.24
2018-08-27T00:33:45.992Z,81.96
2018-08-27T00:34:46.012Z,82.24
2018-08-27T00:35:46.033Z,82.15
2018-08-27T00:36:46.054Z,81.77
2018-08-27T00:38:00.736Z,81.2
2018-08-27T00:38:46.095Z,80.72
2018-08-27T00:39:46.121Z,80.62
2018-08-27T00:40:46.137Z,80.62
2018-08-27T00:41:45.901Z,80.19
2018-08-27T00:42:46.188Z,79.96
2018-08-27T00:43:45.945Z,80.19
2018-08-27T00:44:46.221Z,79.61
2018-08-27T00:45:46.243Z,79.61
2018-08-27T00:46:46.007Z,79.14
2018-08-27T00:47:46.385Z,79.61
2018-08-27T00:48:46.309Z,80.38
2018-08-27T00:49:46.336Z,80.38
2018-08-27T00:50:46.099Z,80.38
2018-08-27T00:51:46.370Z,80.19
2018-08-27T00:52:46.395Z,80.19
2018-08-27T00:54:01.073Z,79.99
2018-08-27T00:54:46.176Z,79.96
2018-08-27T00:55:46.196Z,80.81
2018-08-27T00:56:46.473Z,81.29
2018-08-27T00:57:46.497Z,81.1
2018-08-27T00:58:46.518Z,81.58
2018-08-27T00:59:46.540Z,81.29
2018-08-27T01:00:46.560Z,81.29
2018-08-27T01:01:46.632Z,81.48
2018-08-27T01:02:46.346Z,81.77
2018-08-27T01:03:46.625Z,81.67
2018-08-27T01:04:46.644Z,81.77
2018-08-27T01:05:46.669Z,82.82
2018-08-27T01:06:46.687Z,83.29
2018-08-27T01:07:46.707Z,83.48
2018-08-27T01:08:46.728Z,83.77
2018-08-27T01:10:01.408Z,84.06
2018-08-27T01:10:46.513Z,84.25
2018-08-27T01:11:46.533Z,84.06
2018-08-27T01:12:46.812Z,84.16
2018-08-27T01:13:46.835Z,84.06
2018-08-27T01:14:46.960Z,84.72
2018-08-27T01:15:46.878Z,84.63
2018-08-27T01:16:46.639Z,85.21
2018-08-27T01:17:46.659Z,85.11
2018-08-27T01:19:46.702Z,84.63
2018-08-27T01:20:46.979Z,84.53
2018-08-27T01:21:47.005Z,84.25
2018-08-27T01:22:46.764Z,84.44
2018-08-27T01:23:47.047Z,84.53
2018-08-27T01:24:47.068Z,84.78
2018-08-27T01:26:01.746Z,85.54
2018-08-27T01:26:46.847Z,85.54
2018-08-27T01:27:47.228Z,85.54
2018-08-27T01:28:47.155Z,85.16
2018-08-27T01:29:46.911Z,85.25
2018-08-27T01:30:47.190Z,85.54
2018-08-27T01:31:46.957Z,85.45
2018-08-27T01:32:46.974Z,84.88
2018-08-27T01:33:47.252Z,84.88
2018-08-27T01:35:47.037Z,85.54
2018-08-27T01:37:47.337Z,84.97
2018-08-27T01:38:47.357Z,85.16
2018-08-27T01:39:47.378Z,85.54
2018-08-27T01:41:02.060Z,85.93
2018-08-27T01:41:47.163Z,85.83
2018-08-27T01:42:47.183Z,85.83
2018-08-27T01:43:47.460Z,86.21
2018-08-27T01:44:47.225Z,86.26
2018-08-27T01:46:47.524Z,86.93
2018-08-27T01:47:47.288Z,86.93
2018-08-27T01:48:47.566Z,87.02
2018-08-27T01:49:47.592Z,86.93
2018-08-27T01:50:47.609Z,86.83
2018-08-27T01:51:47.635Z,87.02
2018-08-27T01:52:47.648Z,87.12
2018-08-27T01:53:47.670Z,87.21
2018-08-27T01:54:47.692Z,86.74
2018-08-27T01:55:47.714Z,86.93
2018-08-27T01:56:47.475Z,86.83
2018-08-27T01:57:47.754Z,86.26
2018-08-27T01:58:47.516Z,86.45
2018-08-27T01:59:47.535Z,86.45
2018-08-27T02:00:47.814Z,86.65
2018-08-27T02:01:47.583Z,86.45
2018-08-27T02:02:47.858Z,86.45
2018-08-27T02:03:47.618Z,86.26
2018-08-27T02:04:47.897Z,86.16
2018-08-27T02:05:47.921Z,86.36
2018-08-27T02:06:47.941Z,86.74
2018-08-27T02:07:47.703Z,86.36
2018-08-27T02:08:47.723Z,86.83
2018-08-27T02:09:47.744Z,86.07
2018-08-27T02:10:47.766Z,86.16
2018-08-27T02:11:48.041Z,86.65
2018-08-27T02:13:02.722Z,86.36
2018-08-27T02:13:48.084Z,86.93
2018-08-27T02:14:48.103Z,87.21
2018-08-27T02:15:48.135Z,87.02
2018-08-27T02:17:48.166Z,87.79
2018-08-27T02:18:48.195Z,88.36
2018-08-27T02:19:48.206Z,88.36
2018-08-27T02:20:48.231Z,87.79
2018-08-27T02:21:48.256Z,88.26
2018-08-27T02:22:48.270Z,89.12
2018-08-27T02:23:48.293Z,89.03
2018-08-27T02:24:48.052Z,89.03
2018-08-27T02:25:48.390Z,88.74
2018-08-27T02:26:48.093Z,88.26
2018-08-27T02:27:48.374Z,88.74
2018-08-27T02:29:03.055Z,88.64
2018-08-27T02:29:48.161Z,88.64
2018-08-27T02:30:48.176Z,88.7
2018-08-27T02:31:48.455Z,88.98
2018-08-27T02:32:48.479Z,88.89
2018-08-27T02:33:48.497Z,88.6
2018-08-27T02:34:48.611Z,88.79
2018-08-27T02:35:48.285Z,88.6
2018-08-27T02:36:48.559Z,88.41
2018-08-27T02:37:48.578Z,88.26
2018-08-27T02:38:48.599Z,88.07
2018-08-27T02:39:48.361Z,87.74
2018-08-27T02:40:48.642Z,87.4
2018-08-27T02:41:48.664Z,87.79
2018-08-27T02:42:48.424Z,86.55
2018-08-27T02:43:48.446Z,86.93
2018-08-27T02:45:03.382Z,86.65
2018-08-27T02:45:48.743Z,86.74
2018-08-27T02:46:48.511Z,87.02
2018-08-27T02:47:48.794Z,87.02
2018-08-27T02:48:48.801Z,87.02
2018-08-27T02:49:48.825Z,86.65
2018-08-27T02:50:48.600Z,86.26
2018-08-27T02:51:48.606Z,86.16
2018-08-27T02:52:48.887Z,86.16
2018-08-27T02:53:48.911Z,85.97
2018-08-27T02:54:48.927Z,87.02
2018-08-27T02:55:48.689Z,86.45
2018-08-27T02:56:48.709Z,86.26
2018-08-27T02:57:48.734Z,86.16
2018-08-27T02:58:49.017Z,85.5
2018-08-27T02:59:49.029Z,85.5
2018-08-27T03:01:03.709Z,85.41
2018-08-27T03:01:48.815Z,85.5
2018-08-27T03:02:49.093Z,84.92
2018-08-27T03:03:48.853Z,84.88
2018-08-27T03:04:49.131Z,84.92
2018-08-27T03:05:49.152Z,84.92
2018-08-27T03:06:49.171Z,84.45
2018-08-27T03:07:48.936Z,84.16
2018-08-27T03:08:48.959Z,84.01
2018-08-27T03:09:49.235Z,84.3
2018-08-27T03:10:49.252Z,83.83
2018-08-27T03:11:49.271Z,84.2
2018-08-27T03:12:49.300Z,84.4
2018-08-27T03:13:49.317Z,83.92
2018-08-27T03:14:49.077Z,83.44
2018-08-27T03:16:04.017Z,83.44
2018-08-27T03:16:49.119Z,83.44
2018-08-27T03:17:49.397Z,83.25
2018-08-27T03:18:49.420Z,83.44
2018-08-27T03:19:49.439Z,83.64
2018-08-27T03:20:49.461Z,83.25
2018-08-27T03:21:49.478Z,83.54
2018-08-27T03:22:49.498Z,83.06
2018-08-27T03:23:49.524Z,82.68
2018-08-27T03:24:49.334Z,82.87
2018-08-27T03:25:49.561Z,82.49
2018-08-27T03:26:49.323Z,82.2
2018-08-27T03:27:49.606Z,82.2
2018-08-27T03:28:49.635Z,82.49
2018-08-27T03:29:49.646Z,82.2
2018-08-27T03:30:49.665Z,82.4
2018-08-27T03:31:49.685Z,82.78
2018-08-27T03:32:49.704Z,83.25
2018-08-27T03:33:49.725Z,83.44
2018-08-27T03:34:49.748Z,83.54
2018-08-27T03:35:49.772Z,84.2
2018-08-27T03:36:49.788Z,83.92
2018-08-27T03:37:49.806Z,84.64
2018-08-27T03:38:49.830Z,84.88
2018-08-27T03:39:49.590Z,85.12
2018-08-27T03:40:49.659Z,84.97
2018-08-27T03:41:49.889Z,85.21
2018-08-27T03:42:49.652Z,85.97
2018-08-27T03:43:49.933Z,85.97
2018-08-27T03:44:49.692Z,86.26
2018-08-27T03:45:49.986Z,86.07
2018-08-27T03:46:49.990Z,86.07
2018-08-27T03:48:04.674Z,86.55
2018-08-27T03:49:50.054Z,86.26
2018-08-27T03:50:49.814Z,86.07
2018-08-27T03:51:50.096Z,86.45
2018-08-27T03:52:49.856Z,86.07
2018-08-27T03:53:50.135Z,86.36
2018-08-27T03:54:50.153Z,86.22
2018-08-27T03:58:50.237Z,86.07
2018-08-27T03:59:50.259Z,85.74
2018-08-27T04:01:50.299Z,84.98
2018-08-27T04:02:50.339Z,85.36
2018-08-27T04:04:05.001Z,84.92
2018-08-27T04:04:50.359Z,84.98
2018-08-27T04:05:50.377Z,85.21
2018-08-27T04:06:50.402Z,84.64
2018-08-27T04:08:50.446Z,84.07
2018-08-27T04:09:50.465Z,84.36
2018-08-27T04:10:50.479Z,83.69
2018-08-27T04:11:50.500Z,83.5
2018-08-27T04:12:50.527Z,83.4
2018-08-27T04:13:50.541Z,83.5
2018-08-27T04:14:50.305Z,83.02
2018-08-27T04:15:50.585Z,82.45
2018-08-27T04:16:50.346Z,82.35
2018-08-27T04:17:50.624Z,82.45
2018-08-27T04:18:50.648Z,82.26
2018-08-27T04:20:05.325Z,82.45
2018-08-27T04:20:50.430Z,82.45
2018-08-27T04:21:50.711Z,82.26
2018-08-27T04:22:50.467Z,81.97
2018-08-27T04:23:50.746Z,81.68
2018-08-27T04:24:50.766Z,81.59
2018-08-27T04:25:50.785Z,81.78
2018-08-27T04:26:50.548Z,81.12
2018-08-27T04:27:50.825Z,80.77
2018-08-27T04:28:50.690Z,81.15
2018-08-27T04:29:50.866Z,80.68
2018-08-27T04:30:50.894Z,80.11
2018-08-27T04:31:50.656Z,79.72
2018-08-27T04:32:50.935Z,79.63
2018-08-27T04:33:50.948Z,79.63
2018-08-27T04:34:51.115Z,79.72
2018-08-27T04:36:05.651Z,79.72
2018-08-27T04:36:51.010Z,79.44
2018-08-27T04:37:51.030Z,79.06
2018-08-27T04:38:51.051Z,79.44
2018-08-27T04:39:51.071Z,78.67
2018-08-27T04:40:51.102Z,78.58
2018-08-27T04:41:51.112Z,77.95
2018-08-27T04:43:51.153Z,77.86
2018-08-27T04:44:51.179Z,77.38
2018-08-27T04:45:51.197Z,77.09
2018-08-27T04:46:51.228Z,76.42
2018-08-27T04:47:51.246Z,75.32
2018-08-27T04:48:51.012Z,74.59
2018-08-27T04:49:51.277Z,74.49
2018-08-27T04:51:05.961Z,74.3
2018-08-27T04:51:51.324Z,74.21
2018-08-27T04:52:51.086Z,74.3
2018-08-27T04:53:51.362Z,74.49
2018-08-27T04:54:51.126Z,74.08
2018-08-27T04:56:51.427Z,74.02
2018-08-27T04:57:51.450Z,73.25
2018-08-27T04:58:51.474Z,73
2018-08-27T04:59:51.489Z,72.53
2018-08-27T05:00:51.512Z,71.86
2018-08-27T05:02:51.571Z,71.86
2018-08-27T05:03:51.584Z,71.32
2018-08-27T05:04:51.600Z,70.94
2018-08-27T05:05:51.618Z,70.94
2018-08-27T05:06:51.384Z,70.84
2018-08-27T05:07:51.664Z,70.27
2018-08-27T05:08:51.689Z,70.36
2018-08-27T05:09:51.707Z,69.41
2018-08-27T05:10:51.728Z,67.37
2018-08-27T05:11:51.749Z,65.11
2018-08-27T05:12:51.773Z,65.68
2018-08-27T05:13:51.855Z,65.58
2018-08-27T05:14:51.817Z,65.94
2018-08-27T05:15:51.843Z,66.61
2018-08-27T05:16:51.607Z,67.18
2018-08-27T05:17:51.887Z,67.43
2018-08-27T05:18:51.909Z,67.24
2018-08-27T05:19:51.938Z,68.2
2018-08-27T05:20:51.694Z,68.1
2018-08-27T05:21:51.975Z,68.74
2018-08-27T05:23:06.659Z,68.26
2018-08-27T05:23:52.021Z,68.55
2018-08-27T05:24:52.042Z,68.93
2018-08-27T05:25:52.065Z,68.16
2018-08-27T05:26:52.086Z,68.07
2018-08-27T05:27:51.849Z,68.93
2018-08-27T05:28:51.873Z,68.55
2018-08-27T05:29:51.894Z,68.55
2018-08-27T05:30:52.272Z,68.74
2018-08-27T05:31:52.209Z,68.74
2018-08-27T05:32:52.227Z,68.93
2018-08-27T05:33:52.240Z,69.6
2018-08-27T05:34:52.264Z,69.02
2018-08-27T05:35:52.286Z,68.55
2018-08-27T05:36:52.307Z,69.02
2018-08-27T05:37:52.348Z,69.12
2018-08-27T05:39:07.011Z,69.02
2018-08-27T05:39:52.373Z,68.93
2018-08-27T05:40:52.416Z,69.02
2018-08-27T05:41:52.158Z,68.74
2018-08-27T05:42:52.443Z,68.74
2018-08-27T05:43:52.460Z,68.93
2018-08-27T05:44:52.482Z,68.74
2018-08-27T05:47:52.755Z,68.39
2018-08-27T05:48:52.568Z,68.49
2018-08-27T05:49:52.334Z,68.2
2018-08-27T05:50:52.614Z,67.91
2018-08-27T05:51:52.636Z,67.34
2018-08-27T05:52:52.661Z,67.56
2018-08-27T05:53:52.687Z,67.34
2018-08-27T05:55:07.363Z,67.53
2018-08-27T05:55:52.724Z,67.43
2018-08-27T05:56:52.751Z,67.53
2018-08-27T05:57:52.768Z,66.47
2018-08-27T05:58:52.795Z,67.05
2018-08-27T05:59:52.817Z,67.43
2018-08-27T06:00:52.836Z,66.22
2018-08-27T06:01:53.013Z,65.78
2018-08-27T06:02:52.624Z,63.42
2018-08-27T06:03:52.909Z,61.53
2018-08-27T06:04:52.932Z,59.29
2018-08-27T06:05:52.954Z,57.68
2018-08-27T06:06:53.031Z,55.79
2018-08-27T06:07:52.743Z,54.12
2018-08-27T06:08:53.029Z,52.8
2018-08-27T06:09:53.064Z,51.5
2018-08-27T06:11:07.795Z,50.27
2018-08-27T06:11:53.102Z,50.27
2018-08-27T06:12:53.127Z,50.25
2018-08-27T06:13:53.152Z,50.45
2018-08-27T06:14:53.176Z,50.71
2018-08-27T06:15:53.209Z,51.19
2018-08-27T06:16:53.228Z,50.71
2018-08-27T06:17:53.257Z,50.42
2018-08-27T06:18:53.293Z,50.13
2018-08-27T06:19:53.313Z,49.48
2018-08-27T06:20:53.075Z,48.16
2018-08-27T06:21:53.548Z,47.6
2018-08-27T06:22:53.388Z,46.86
2018-08-27T06:23:53.423Z,46.86
2018-08-27T06:24:53.197Z,47.12
2018-08-27T06:26:08.130Z,47.49
2018-08-27T06:26:53.502Z,47.94
2018-08-27T06:27:53.522Z,48.59
2018-08-27T06:28:53.592Z,49.74
2018-08-27T06:29:53.315Z,49.94
2018-08-27T06:30:53.343Z,50.2
2018-08-27T06:31:53.625Z,50.59
2018-08-27T06:32:53.653Z,50.87
2018-08-27T06:33:53.693Z,50.66
2018-08-27T06:34:53.703Z,51.53
2018-08-27T06:36:53.754Z,51.72
2018-08-27T06:37:53.887Z,51.81
2018-08-27T06:38:53.817Z,51.33
2018-08-27T06:39:53.574Z,51.23
2018-08-27T06:40:53.855Z,51.23
2018-08-27T06:41:53.624Z,50.49
2018-08-27T06:42:53.908Z,49.19
2018-08-27T06:43:53.932Z,48.35
2018-08-27T06:44:53.960Z,47.58
2018-08-27T06:45:54.084Z,47.39
2018-08-27T06:46:53.752Z,47.67
2018-08-27T06:47:53.789Z,47.58
2018-08-27T06:48:53.808Z,47.58
2018-08-27T06:49:54.086Z,47.39
2018-08-27T06:50:53.860Z,47.12
2018-08-27T06:52:54.165Z,46.83
2018-08-27T06:53:53.934Z,47.12
2018-08-27T06:54:54.221Z,47.03
2018-08-27T06:55:54.244Z,47.7
2018-08-27T06:56:54.269Z,47.77
2018-08-27T06:58:08.957Z,47.97
2018-08-27T06:58:54.320Z,47.97
2018-08-27T06:59:54.133Z,47.77
2018-08-27T07:00:54.113Z,47.85
2018-08-27T07:01:54.140Z,48.61
2018-08-27T07:02:54.424Z,49.17
2018-08-27T07:03:54.450Z,49.55
2018-08-27T07:04:54.479Z,49.07
2018-08-27T07:06:54.265Z,48.69
2018-08-27T07:07:54.547Z,48.71
2018-08-27T07:08:54.574Z,48.03
2018-08-27T07:09:54.605Z,47.77
2018-08-27T07:10:54.630Z,47.39
2018-08-27T07:11:54.894Z,47.97
2018-08-27T07:12:54.679Z,47.97
2018-08-27T07:14:09.363Z,47.1
2018-08-27T07:14:54.470Z,47.49
2018-08-27T07:15:54.753Z,47.19
2018-08-27T07:16:54.777Z,47.97
2018-08-27T07:17:54.802Z,47.39
2018-08-27T07:18:54.570Z,47.39
2018-08-27T07:19:54.854Z,47.67
2018-08-27T07:20:54.620Z,47.58
2018-08-27T07:21:54.909Z,47.97
2018-08-27T07:22:54.928Z,47.87
2018-08-27T07:23:54.957Z,47.87
2018-08-27T07:24:54.978Z,48.43
2018-08-27T07:25:55.004Z,48.44
2018-08-27T07:26:54.772Z,47.77
2018-08-27T07:27:55.057Z,48.35
2018-08-27T07:28:55.085Z,47.87
2018-08-27T07:30:09.768Z,47.39
2018-08-27T07:30:55.130Z,47.7
2018-08-27T07:31:55.159Z,47.41
2018-08-27T07:32:54.923Z,47.31
2018-08-27T07:33:54.950Z,47.03
2018-08-27T07:34:55.231Z,46.83
2018-08-27T07:35:55.254Z,47.22
2018-08-27T07:36:55.281Z,46.28
2018-08-27T07:37:55.046Z,46.95
2018-08-27T07:38:55.330Z,46.28
2018-08-27T07:39:55.099Z,46.25
2018-08-27T07:40:55.405Z,46.83
2018-08-27T07:41:55.415Z,46.93
2018-08-27T07:42:55.172Z,46.83
2018-08-27T07:43:55.455Z,46.93
2018-08-27T07:44:55.490Z,46.93
2018-08-27T07:46:10.167Z,46.64
2018-08-27T07:46:55.530Z,46.93
2018-08-27T07:47:55.555Z,46.64
2018-08-27T07:48:55.325Z,45.97
2018-08-27T07:49:55.605Z,46.55
2018-08-27T07:50:55.628Z,45.48
2018-08-27T07:51:55.654Z,46.15
2018-08-27T07:52:55.422Z,46.25
2018-08-27T07:54:55.730Z,45.58
2018-08-27T07:56:56.782Z,44.45
2018-08-27T07:57:55.549Z,43.98
2018-08-27T07:58:55.830Z,42.48
2018-08-27T07:59:55.858Z,42.12
2018-08-27T08:01:10.543Z,41.44
2018-08-27T08:01:55.909Z,40.96
2018-08-27T08:02:55.935Z,40.98
2018-08-27T08:03:55.961Z,41.36
2018-08-27T08:04:55.992Z,41.25
2018-08-27T08:05:56.025Z,40.88
2018-08-27T08:06:55.783Z,40.78
2018-08-27T08:07:56.065Z,39.92
2018-08-27T08:08:56.308Z,40.4
2018-08-27T08:09:56.125Z,40.5
2018-08-27T08:10:56.143Z,40.88
2018-08-27T08:11:56.170Z,40.71
2018-08-27T08:12:56.197Z,41.17
2018-08-27T08:13:55.964Z,41.83
2018-08-27T08:14:55.992Z,42.02
2018-08-27T08:15:56.277Z,40.67
2018-08-27T08:16:56.309Z,39.74
2018-08-27T08:17:56.330Z,39.47
2018-08-27T08:18:56.356Z,39.67
2018-08-27T08:19:56.143Z,39.86
2018-08-27T08:20:56.253Z,39.67
2018-08-27T08:21:56.437Z,38.99
2018-08-27T08:22:56.737Z,38.33
2018-08-27T08:23:56.505Z,37.67
2018-08-27T08:24:56.545Z,36.91
2018-08-27T08:25:56.562Z,37.01
2018-08-27T08:26:56.590Z,37.03
2018-08-27T08:27:56.617Z,36.52
2018-08-27T08:28:56.373Z,36.99
2018-08-27T08:29:56.406Z,37.3
2018-08-27T08:30:56.712Z,36.6
2018-08-27T08:31:56.457Z,36.24
2018-08-27T08:33:11.477Z,36.14
2018-08-27T08:33:56.792Z,36.16
2018-08-27T08:34:56.809Z,35.49
2018-08-27T08:35:56.849Z,35.38
2018-08-27T08:36:56.944Z,35.28
2018-08-27T08:37:56.644Z,35.38
2018-08-27T08:38:56.948Z,35.09
2018-08-27T08:39:57.227Z,35.28
2018-08-27T08:41:57.003Z,35.19
2018-08-27T08:42:57.029Z,35.38
2018-08-27T08:43:57.056Z,35.19
2018-08-27T08:44:57.106Z,34.72
2018-08-27T08:45:57.121Z,34.72
2018-08-27T08:46:57.150Z,33.96
2018-08-27T08:47:57.180Z,34.74
2018-08-27T08:49:11.862Z,34.64
2018-08-27T08:49:57.288Z,33.78
2018-08-27T08:50:57.026Z,34.25
2018-08-27T08:51:57.294Z,33.29
2018-08-27T08:52:57.331Z,33.39
2018-08-27T08:53:57.090Z,33.01
2018-08-27T08:54:57.396Z,33.28
2018-08-27T08:55:57.433Z,33.46
2018-08-27T08:56:57.452Z,33.75
2018-08-27T08:59:57.263Z,33.65
2018-08-27T09:00:57.542Z,33.75
2018-08-27T09:01:57.568Z,33.94
2018-08-27T09:02:57.599Z,33.26
2018-08-27T09:03:57.624Z,33.46
2018-08-27T09:05:12.318Z,33.94
2018-08-27T09:05:57.682Z,33.44
2018-08-27T09:06:57.710Z,33.54
2018-08-27T09:07:57.772Z,34.22
2018-08-27T09:08:57.547Z,33.73
2018-08-27T09:09:57.799Z,33.54
2018-08-27T09:10:57.829Z,32.97
2018-08-27T09:11:57.596Z,32.68
2018-08-27T09:12:57.887Z,32.49
2018-08-27T09:13:57.914Z,32.23
2018-08-27T09:14:57.935Z,31.95
2018-08-27T09:15:57.969Z,31.57
2018-08-27T09:16:58.210Z,31.47
2018-08-27T09:17:57.763Z,31.57
2018-08-27T09:18:58.055Z,31.27
2018-08-27T09:19:57.820Z,31.48
2018-08-27T09:21:12.769Z,31.1
2018-08-27T09:21:58.135Z,31.77
2018-08-27T09:22:58.169Z,31.87
2018-08-27T09:23:58.194Z,31.37
2018-08-27T09:24:58.220Z,31.85
2018-08-27T09:26:58.019Z,32.13
2018-08-27T09:27:58.309Z,31.92
2018-08-27T09:28:58.343Z,32.31
2018-08-27T09:29:58.105Z,32.7
2018-08-27T09:30:58.397Z,32.99
2018-08-27T09:31:58.167Z,33.65
2018-08-27T09:32:58.192Z,33.46
2018-08-27T09:33:58.218Z,33.46
2018-08-27T09:34:58.245Z,34.14
2018-08-27T09:36:13.194Z,34.51
2018-08-27T09:36:58.621Z,34.89
2018-08-27T09:37:58.586Z,35.11
2018-08-27T09:38:58.613Z,34.81
2018-08-27T09:40:58.677Z,35.17
2018-08-27T09:41:58.703Z,35.94
2018-08-27T09:43:58.761Z,35.38
2018-08-27T09:45:59.100Z,35.64
2018-08-27T09:46:59.108Z,35.54
2018-08-27T09:47:58.861Z,36.02
2018-08-27T09:48:58.888Z,35.73
2018-08-27T09:49:58.934Z,35.54
2018-08-27T09:50:59.043Z,35.93
2018-08-27T09:51:58.969Z,36.02
2018-08-27T09:52:59.144Z,36.22
2018-08-27T09:53:59.023Z,35.83
2018-08-27T09:54:59.053Z,35.25
2018-08-27T09:55:59.085Z,35.44
2018-08-27T09:56:58.847Z,35.64
2018-08-27T09:57:59.132Z,36.2
2018-08-27T09:58:59.200Z,36
2018-08-27T09:59:58.926Z,35.91
2018-08-27T10:00:59.220Z,36.2
2018-08-27T10:02:59.266Z,36.22
2018-08-27T10:03:59.035Z,36.6
2018-08-27T10:04:59.330Z,36.02
2018-08-27T10:05:59.345Z,36.32
2018-08-27T10:06:59.115Z,36.02
2018-08-27T10:08:14.068Z,36.12
2018-08-27T10:08:59.573Z,36.22
2018-08-27T10:09:59.464Z,36.32
2018-08-27T10:10:59.228Z,36.88
2018-08-27T10:11:59.512Z,36.98
2018-08-27T10:12:59.534Z,36.88
2018-08-27T10:13:59.301Z,37.07
2018-08-27T10:14:59.638Z,36.6
2018-08-27T10:15:59.354Z,36.14
2018-08-27T10:16:59.640Z,36.14
2018-08-27T10:17:59.411Z,35.85
2018-08-27T10:18:59.694Z,35.66
2018-08-27T10:19:59.740Z,35.27
2018-08-27T10:20:59.494Z,35.07
2018-08-27T10:21:59.786Z,35.46
2018-08-27T10:22:59.799Z,35.36
2018-08-27T10:24:14.488Z,35.57
2018-08-27T10:24:59.595Z,35.67
2018-08-27T10:25:59.622Z,35.38
2018-08-27T10:26:59.909Z,34.91
2018-08-27T10:27:59.674Z,35.49
2018-08-27T10:28:59.958Z,35.57
2018-08-27T10:30:00.415Z,35.09
2018-08-27T10:31:00.013Z,34.99
2018-08-27T10:32:00.039Z,35.19
2018-08-27T10:33:00.068Z,35.36
2018-08-27T10:34:00.093Z,35.27
2018-08-27T10:35:00.120Z,36.41
2018-08-27T10:36:00.153Z,36.2
2018-08-27T10:37:00.177Z,36.78
2018-08-27T10:38:00.207Z,36.96
2018-08-27T10:38:59.967Z,36.76
2018-08-27T10:40:14.916Z,37.24
2018-08-27T10:41:00.278Z,37.34
2018-08-27T10:42:00.305Z,37.73
2018-08-27T10:43:00.627Z,38.02
2018-08-27T10:44:00.363Z,37.15
2018-08-27T10:45:00.385Z,38.02
2018-08-27T10:46:00.410Z,37.05
2018-08-27T10:48:00.466Z,37.17
2018-08-27T10:49:00.233Z,37.07
2018-08-27T10:50:00.628Z,36.68
2018-08-27T10:52:00.568Z,36.51
2018-08-27T10:53:00.599Z,36.22
2018-08-27T10:54:00.630Z,36.02
2018-08-27T10:55:00.648Z,36.41
2018-08-27T10:56:15.338Z,36.6
2018-08-27T10:57:00.444Z,36.6
2018-08-27T10:58:00.830Z,36.43
2018-08-27T10:59:00.759Z,36.24
2018-08-27T11:00:00.781Z,36.8
2018-08-27T11:03:00.868Z,37.19
2018-08-27T11:05:00.922Z,36.7
2018-08-27T11:06:00.938Z,36.9
2018-08-27T11:07:00.707Z,36.99
2018-08-27T11:08:00.734Z,36.8
2018-08-27T11:09:00.762Z,37.38
2018-08-27T11:10:00.787Z,38.15
2018-08-27T11:11:15.733Z,37.96
2018-08-27T11:12:01.099Z,38.15
2018-08-27T11:13:01.125Z,38.06
2018-08-27T11:14:01.150Z,38.35
2018-08-27T11:15:00.920Z,38.06
2018-08-27T11:16:01.289Z,38.83
2018-08-27T11:17:01.228Z,38.53
2018-08-27T11:18:01.259Z,39.01
2018-08-27T11:19:01.024Z,38.71
2018-08-27T11:20:01.623Z,38.89
2018-08-27T11:22:01.365Z,39.37
2018-08-27T11:23:01.388Z,39.47
2018-08-27T11:24:01.416Z,39.09
2018-08-27T11:25:01.443Z,39.37
2018-08-27T11:26:01.469Z,39.57
2018-08-27T11:27:01.235Z,39.67
2018-08-27T11:28:01.259Z,39.57
2018-08-27T11:29:01.554Z,39.74
2018-08-27T11:31:01.598Z,39.18
2018-08-27T11:32:01.625Z,38.79
2018-08-27T11:33:01.536Z,38.79
2018-08-27T11:34:01.675Z,38.31
2018-08-27T11:36:01.731Z,38.7
2018-08-27T11:37:01.754Z,38.7
2018-08-27T11:38:01.784Z,39.26
2018-08-27T11:39:01.811Z,39.26
2018-08-27T11:40:01.839Z,39.74
2018-08-27T11:41:01.856Z,39.74
2018-08-27T11:42:01.625Z,38.87
2018-08-27T11:43:16.582Z,39.26
2018-08-27T11:44:01.937Z,39.06
2018-08-27T11:45:01.979Z,39.36
2018-08-27T11:46:01.995Z,38.87
2018-08-27T11:47:01.755Z,38.79
2018-08-27T11:48:01.781Z,39.45
2018-08-27T11:49:02.081Z,39.16
2018-08-27T11:50:02.114Z,39.06
2018-08-27T11:51:02.241Z,39.36
2018-08-27T11:52:01.886Z,38.97
2018-08-27T11:53:02.169Z,39.55
2018-08-27T11:54:02.194Z,38.87
2018-08-27T11:55:02.448Z,39.06
2018-08-27T11:56:02.249Z,39.26
2018-08-27T11:57:02.270Z,38.79
2018-08-27T11:58:02.300Z,38.99
2018-08-27T11:59:16.986Z,38.7
2018-08-27T12:00:02.400Z,38.89
2018-08-27T12:01:02.492Z,38.89
2018-08-27T12:02:02.467Z,38.7
2018-08-27T12:03:02.430Z,38.31
2018-08-27T12:05:02.479Z,38.62
2018-08-27T12:06:02.514Z,38.7
2018-08-27T12:07:02.539Z,38.62
2018-08-27T12:08:02.556Z,38.33
2018-08-27T12:09:02.958Z,38.33
2018-08-27T12:10:02.612Z,38.53
2018-08-27T12:11:02.637Z,38.25
2018-08-27T12:12:02.402Z,38.35
2018-08-27T12:13:02.687Z,37.87
2018-08-27T12:14:02.712Z,38.45
2018-08-27T12:15:17.399Z,38.83
2018-08-27T12:16:02.763Z,39.01
2018-08-27T12:17:02.582Z,38.73
2018-08-27T12:18:02.558Z,39.11
2018-08-27T12:20:02.871Z,39.88
2018-08-27T12:21:02.898Z,39.97
2018-08-27T12:22:02.663Z,39.88
2018-08-27T12:23:02.952Z,40.07
2018-08-27T12:24:02.973Z,40.36
2018-08-27T12:25:03.003Z,40.15
2018-08-27T12:27:03.049Z,39.97
2018-08-27T12:28:03.077Z,40.07
2018-08-27T12:29:03.202Z,40.05
2018-08-27T12:30:03.127Z,40.07
2018-08-27T12:31:17.816Z,39.59
2018-08-27T12:32:03.180Z,40.07
2018-08-27T12:33:02.949Z,40.07
2018-08-27T12:34:03.232Z,39.88
2018-08-27T12:35:03.265Z,40.26
2018-08-27T12:36:03.288Z,40
2018-08-27T12:37:03.308Z,40.38
2018-08-27T12:38:03.343Z,40.28
2018-08-27T12:39:03.360Z,39.9
2018-08-27T12:40:03.133Z,40.26
2018-08-27T12:41:03.604Z,39.88
2018-08-27T12:42:03.443Z,39.29
2018-08-27T12:43:03.468Z,40
2018-08-27T12:44:03.493Z,39.8
2018-08-27T12:45:03.520Z,39.49
2018-08-27T12:46:18.205Z,39.88
2018-08-27T12:47:03.574Z,39.41
2018-08-27T12:48:03.598Z,39.7
2018-08-27T12:49:03.634Z,39.9
2018-08-27T12:50:03.648Z,39.41
2018-08-27T12:51:03.933Z,39.41
2018-08-27T12:52:03.443Z,39.61
2018-08-27T12:53:03.470Z,40
2018-08-27T12:54:03.758Z,40.36
2018-08-27T12:55:03.780Z,39.59
2018-08-27T12:56:03.805Z,39.88
2018-08-27T12:57:03.832Z,40.38
2018-08-27T12:58:03.865Z,40.19
2018-08-27T12:59:03.892Z,40.09
2018-08-27T13:00:03.652Z,39.9
2018-08-27T13:01:03.940Z,40
2018-08-27T13:02:03.972Z,39.8
2018-08-27T13:03:03.731Z,39.41
2018-08-27T13:04:04.012Z,39.7
2018-08-27T13:05:04.043Z,39.32
2018-08-27T13:06:03.809Z,39.22
2018-08-27T13:07:04.108Z,39.51
2018-08-27T13:08:03.915Z,39.32
2018-08-27T13:09:03.888Z,39.12
2018-08-27T13:10:03.913Z,39.41
2018-08-27T13:11:04.203Z,40
2018-08-27T13:13:04.084Z,40.09
2018-08-27T13:14:04.017Z,40.17
2018-08-27T13:15:04.307Z,39.88
2018-08-27T13:16:04.336Z,40.26
2018-08-27T13:17:04.097Z,40.17
2018-08-27T13:18:19.041Z,40.09
2018-08-27T13:19:04.630Z,40.19
2018-08-27T13:20:04.437Z,40.75
2018-08-27T13:21:04.199Z,41.62
2018-08-27T13:22:04.488Z,42.47
2018-08-27T13:23:04.252Z,42.57
2018-08-27T13:24:04.538Z,42.18
2018-08-27T13:25:04.561Z,42.28
2018-08-27T13:26:04.397Z,42.18
2018-08-27T13:27:04.627Z,41.7
2018-08-27T13:28:04.648Z,41.14
2018-08-27T13:29:04.408Z,41.91
2018-08-27T13:30:04.893Z,41.52
2018-08-27T13:31:04.718Z,41.04
2018-08-27T13:32:04.746Z,40.96
2018-08-27T13:33:04.513Z,40.96
2018-08-27T13:34:19.458Z,40.84
2018-08-27T13:35:04.849Z,41.55
2018-08-27T13:36:04.848Z,40.86
2018-08-27T13:37:04.616Z,40.77
2018-08-27T13:38:04.900Z,40.77
2018-08-27T13:39:04.676Z,40.28